createdAt,value
2019-01-24T00:00:15.171Z,18.525
2019-01-24T00:03:15.106Z,5.738
2019-01-24T00:06:15.663Z,12.650
2019-01-24T00:09:20.435Z,15.512
2019-01-24T00:12:15.863Z,10.387
2019-01-24T00:15:15.182Z,7.175
2019-01-24T00:18:15.655Z,22.588
2019-01-24T00:21:15.330Z,15.175
2019-01-24T00:24:15.861Z,13.000
2019-01-24T00:27:15.300Z,7.012
2019-01-24T00:30:15.497Z,8.775
2019-01-24T00:33:15.826Z,12.537
2019-01-24T00:36:15.358Z,8.025
2019-01-24T00:39:15.277Z,8.550
2019-01-24T00:42:15.525Z,7.750
2019-01-24T00:45:14.951Z,13.688
2019-01-24T00:48:15.344Z,11.488
2019-01-24T00:51:15.719Z,8.012
2019-01-24T00:54:15.085Z,12.250
2019-01-24T00:57:15.826Z,9.550
2019-01-24T01:00:15.044Z,6.975
2019-01-24T01:03:15.188Z,6.287
2019-01-24T01:06:15.816Z,9.475
2019-01-24T01:09:15.274Z,6.650
2019-01-24T01:12:15.417Z,11.012
2019-01-24T01:15:15.811Z,11.912
2019-01-24T01:18:15.179Z,9.575
2019-01-24T01:21:15.665Z,14.412
2019-01-24T01:24:14.914Z,11.762
2019-01-24T01:27:15.677Z,17.212
2019-01-24T01:30:15.308Z,6.650
2019-01-24T01:33:15.696Z,14.512
2019-01-24T01:36:14.951Z,11.087
2019-01-24T01:39:15.423Z,11.512
2019-01-24T01:42:15.687Z,14.337
2019-01-24T01:45:15.087Z,9.963
2019-01-24T01:48:15.590Z,14.087
2019-01-24T01:51:14.976Z,13.875
2019-01-24T01:54:15.253Z,8.812
2019-01-24T01:57:15.555Z,13.775
2019-01-24T02:00:15.775Z,16.012
2019-01-24T02:03:15.285Z,9.737
2019-01-24T02:06:14.952Z,17.288
2019-01-24T02:09:15.733Z,18.775
2019-01-24T02:12:15.314Z,15.713
2019-01-24T02:15:15.623Z,9.475
2019-01-24T02:18:15.198Z,24.300
2019-01-24T02:21:15.550Z,12.300
2019-01-24T02:24:15.891Z,19.700
2019-01-24T02:27:15.447Z,15.400
2019-01-24T02:30:15.793Z,15.037
2019-01-24T02:33:15.718Z,11.737
2019-01-24T02:36:15.695Z,9.338
2019-01-24T02:39:15.003Z,6.588
2019-01-24T02:42:15.533Z,11.387
2019-01-24T02:45:14.953Z,9.475
2019-01-24T02:48:15.333Z,9.600
2019-01-24T02:51:15.619Z,14.238
2019-01-24T02:54:15.279Z,10.188
2019-01-24T02:57:15.627Z,17.175
2019-01-24T03:00:15.001Z,11.988
2019-01-24T03:03:15.266Z,13.387
2019-01-24T03:06:15.679Z,14.700
2019-01-24T03:09:15.292Z,18.413
2019-01-24T03:12:14.989Z,18.413
2019-01-24T03:15:15.381Z,13.275
2019-01-24T03:18:15.799Z,11.137
2019-01-24T03:21:15.112Z,10.637
2019-01-24T03:24:15.409Z,7.738
2019-01-24T03:27:15.019Z,4.737
2019-01-24T03:30:15.338Z,9.875
2019-01-24T03:33:15.689Z,16.075
2019-01-24T03:36:15.640Z,10.375
2019-01-24T03:39:15.177Z,11.750
2019-01-24T03:42:15.751Z,8.488
2019-01-24T03:45:15.260Z,10.700
2019-01-24T03:48:15.585Z,8.625
2019-01-24T03:51:15.028Z,10.938
2019-01-24T03:54:15.426Z,10.350
2019-01-24T03:57:15.862Z,11.450
2019-01-24T04:00:15.352Z,15.850
2019-01-24T04:03:15.479Z,10.512
2019-01-24T04:06:15.246Z,9.600
2019-01-24T04:09:15.645Z,12.800
2019-01-24T04:12:15.019Z,8.213
2019-01-24T04:15:15.318Z,11.500
2019-01-24T04:18:15.122Z,17.175
2019-01-24T04:21:15.439Z,14.963
2019-01-24T04:24:15.153Z,7.862
2019-01-24T04:27:15.684Z,9.325
2019-01-24T04:30:15.301Z,12.350
2019-01-24T04:33:14.931Z,6.863
2019-01-24T04:36:15.493Z,8.975
2019-01-24T04:39:15.371Z,14.613
2019-01-24T04:42:15.678Z,16.775
2019-01-24T04:45:15.236Z,9.000
2019-01-24T04:48:15.450Z,7.425
2019-01-24T04:51:15.692Z,7.213
2019-01-24T04:54:15.175Z,9.825
2019-01-24T04:57:15.882Z,5.725
2019-01-24T05:00:15.145Z,8.700
2019-01-24T05:03:16.223Z,14.238
2019-01-24T05:06:15.768Z,10.087
2019-01-24T05:09:15.245Z,6.662
2019-01-24T05:12:20.426Z,11.050
2019-01-24T05:15:15.731Z,8.837
2019-01-24T05:18:15.384Z,8.575
2019-01-24T05:21:15.735Z,13.000
2019-01-24T05:24:20.260Z,18.000
2019-01-24T05:27:16.611Z,11.975
2019-01-24T05:30:15.299Z,11.350
2019-01-24T05:33:16.865Z,11.213
2019-01-24T05:36:15.400Z,15.213
2019-01-24T05:39:14.941Z,16.163
2019-01-24T05:42:15.558Z,12.325
2019-01-24T05:45:14.998Z,11.325
2019-01-24T05:48:15.492Z,20.150
2019-01-24T05:51:14.967Z,8.012
2019-01-24T05:54:15.293Z,9.675
2019-01-24T05:57:15.377Z,18.600
2019-01-24T06:00:16.423Z,12.512
2019-01-24T06:03:15.457Z,13.162
2019-01-24T06:06:15.108Z,8.963
2019-01-24T06:09:15.700Z,12.062
2019-01-24T06:12:15.079Z,19.600
2019-01-24T06:15:15.792Z,13.950
2019-01-24T06:18:15.647Z,9.175
2019-01-24T06:21:15.358Z,7.588
2019-01-24T06:24:15.828Z,10.000
2019-01-24T06:27:15.304Z,17.700
2019-01-24T06:30:15.869Z,20.250
2019-01-24T06:33:15.722Z,13.325
2019-01-24T06:36:15.296Z,17.125
2019-01-24T06:39:15.858Z,11.462
2019-01-24T06:42:15.556Z,18.038
2019-01-24T06:45:15.272Z,13.788
2019-01-24T06:48:15.058Z,28.312
2019-01-24T06:51:15.764Z,19.962
2019-01-24T06:54:15.324Z,19.212
2019-01-24T06:57:15.870Z,21.825
2019-01-24T07:00:15.322Z,11.662
2019-01-24T07:03:15.931Z,12.513
2019-01-24T07:06:15.628Z,20.700
2019-01-24T07:09:15.241Z,23.887
2019-01-24T07:12:15.809Z,24.900
2019-01-24T07:15:15.143Z,23.288
2019-01-24T07:18:15.682Z,22.763
2019-01-24T07:21:15.102Z,24.138
2019-01-24T07:24:15.665Z,25.625
2019-01-24T07:27:15.422Z,18.387
2019-01-24T07:30:15.794Z,22.750
2019-01-24T07:33:15.256Z,17.188
2019-01-24T07:36:15.584Z,27.788
2019-01-24T07:39:15.067Z,19.637
2019-01-24T07:42:15.498Z,31.912
2019-01-24T07:45:15.919Z,17.200
2019-01-24T07:48:15.297Z,19.400
2019-01-24T07:51:15.766Z,19.375
2019-01-24T07:54:15.764Z,17.025
2019-01-24T07:57:15.388Z,17.262
2019-01-24T08:00:15.664Z,22.375
2019-01-24T08:03:15.373Z,18.113
2019-01-24T08:06:15.750Z,19.650
2019-01-24T08:09:15.375Z,31.100
2019-01-24T08:12:15.701Z,29.450
2019-01-24T08:15:15.234Z,19.613
2019-01-24T08:18:15.796Z,27.262
2019-01-24T08:21:15.164Z,26.987
2019-01-24T08:24:15.647Z,19.100
2019-01-24T08:27:15.280Z,22.488
2019-01-24T08:30:15.613Z,35.037
2019-01-24T08:33:15.050Z,23.837
2019-01-24T08:36:15.778Z,13.138
2019-01-24T08:39:15.162Z,21.150
2019-01-24T08:42:15.131Z,23.425
2019-01-24T08:45:15.506Z,30.587
2019-01-24T08:48:15.917Z,24.212
2019-01-24T08:51:15.438Z,20.725
2019-01-24T08:54:15.959Z,21.562
2019-01-24T08:57:15.335Z,22.050
2019-01-24T09:00:15.677Z,18.375
2019-01-24T09:03:15.300Z,14.050
2019-01-24T09:06:22.367Z,15.387
2019-01-24T09:09:15.235Z,25.212
2019-01-24T09:12:15.496Z,23.962
2019-01-24T09:15:15.148Z,20.325
2019-01-24T09:18:15.910Z,20.537
2019-01-24T09:21:15.372Z,14.863
2019-01-24T09:24:14.992Z,24.637
2019-01-24T09:27:15.256Z,16.463
2019-01-24T09:30:15.791Z,22.075
2019-01-24T09:33:15.876Z,19.763
2019-01-24T09:36:15.259Z,15.550
2019-01-24T09:39:15.887Z,10.738
2019-01-24T09:42:15.341Z,10.713
2019-01-24T09:45:15.876Z,14.962
2019-01-24T09:48:15.079Z,16.025
2019-01-24T09:51:15.561Z,13.150
2019-01-24T09:54:15.285Z,20.812
2019-01-24T09:57:15.628Z,16.650
2019-01-24T10:00:15.707Z,21.837
2019-01-24T10:03:15.310Z,25.250
2019-01-24T10:06:14.863Z,18.612
2019-01-24T10:09:15.627Z,12.175
2019-01-24T10:12:15.006Z,13.038
2019-01-24T10:15:15.613Z,18.988
2019-01-24T10:18:21.624Z,20.125
2019-01-24T10:21:15.602Z,19.762
2019-01-24T10:24:15.015Z,12.525
2019-01-24T10:27:15.470Z,12.663
2019-01-24T10:30:15.794Z,15.913
2019-01-24T10:33:15.487Z,10.887
2019-01-24T10:36:14.871Z,11.350
2019-01-24T10:39:15.288Z,19.700
2019-01-24T10:42:15.839Z,11.463
2019-01-24T10:45:15.421Z,14.537
2019-01-24T10:48:14.868Z,15.225
2019-01-24T10:51:15.353Z,11.650
2019-01-24T10:54:15.713Z,9.037
2019-01-24T10:57:15.461Z,14.125
2019-01-24T11:00:15.077Z,15.325
2019-01-24T11:03:15.089Z,11.588
2019-01-24T11:06:15.501Z,11.887
2019-01-24T11:09:15.005Z,7.525
2019-01-24T11:12:15.539Z,9.500
2019-01-24T11:15:15.058Z,10.963
2019-01-24T11:18:15.523Z,11.637
2019-01-24T11:21:15.956Z,15.387
2019-01-24T11:24:15.533Z,12.113
2019-01-24T11:27:14.999Z,7.162
2019-01-24T11:30:15.430Z,6.800
2019-01-24T11:33:15.231Z,7.150
2019-01-24T11:36:15.497Z,10.412
2019-01-24T11:39:14.956Z,10.750
2019-01-24T11:42:15.324Z,9.287
2019-01-24T11:45:15.722Z,6.512
2019-01-24T11:48:15.018Z,6.275
2019-01-24T11:51:15.274Z,5.825
2019-01-24T11:54:15.574Z,9.062
2019-01-24T11:57:15.012Z,4.637
2019-01-24T12:00:15.591Z,7.088
2019-01-24T12:03:15.884Z,7.200
2019-01-24T12:06:15.385Z,6.738
2019-01-24T12:09:15.961Z,4.938
2019-01-24T12:12:15.400Z,6.300
2019-01-24T12:15:15.844Z,5.725
2019-01-24T12:18:15.792Z,9.425
2019-01-24T12:21:15.286Z,7.537
2019-01-24T12:24:15.203Z,11.762
2019-01-24T12:27:15.726Z,12.412
2019-01-24T12:30:15.373Z,10.150
2019-01-24T12:33:14.930Z,11.425
2019-01-24T12:36:15.249Z,6.938
2019-01-24T12:39:15.631Z,8.900
2019-01-24T12:42:14.831Z,6.862
2019-01-24T12:45:15.208Z,6.775
2019-01-24T12:48:15.374Z,10.975
2019-01-24T12:51:15.792Z,9.875
2019-01-24T12:54:15.115Z,12.900
2019-01-24T12:57:15.612Z,7.762
2019-01-24T13:00:15.119Z,8.375
2019-01-24T13:03:15.942Z,7.138
2019-01-24T13:06:15.391Z,16.362
2019-01-24T13:09:15.786Z,10.938
2019-01-24T13:12:15.062Z,8.000
2019-01-24T13:15:15.354Z,12.450
2019-01-24T13:18:15.508Z,4.050
2019-01-24T13:21:15.070Z,8.525
2019-01-24T13:24:15.548Z,7.350
2019-01-24T13:27:15.804Z,10.800
2019-01-24T13:30:15.326Z,8.012
2019-01-24T13:33:15.258Z,2.375
2019-01-24T13:36:15.604Z,12.825
2019-01-24T13:39:15.060Z,11.088
2019-01-24T13:42:15.508Z,6.988
2019-01-24T13:45:14.865Z,8.200
2019-01-24T13:48:15.138Z,8.675
2019-01-24T13:51:15.589Z,10.413
2019-01-24T13:54:14.912Z,5.475
2019-01-24T13:57:15.385Z,5.575
2019-01-24T14:00:15.830Z,6.863
2019-01-24T14:03:15.034Z,8.012
2019-01-24T14:06:15.841Z,10.912
2019-01-24T14:09:15.312Z,5.400
2019-01-24T14:12:15.782Z,4.075
2019-01-24T14:15:15.537Z,5.950
2019-01-24T14:18:15.307Z,7.588
2019-01-24T14:21:15.700Z,4.438
2019-01-24T14:24:15.163Z,6.938
2019-01-24T14:27:15.376Z,4.275
2019-01-24T14:30:14.882Z,6.613
2019-01-24T14:33:15.382Z,6.750
2019-01-24T14:36:15.423Z,8.637
2019-01-24T14:39:15.230Z,4.575
2019-01-24T14:42:15.658Z,4.412
2019-01-24T14:45:15.184Z,7.400
2019-01-24T14:48:15.668Z,3.750
2019-01-24T14:51:15.085Z,3.438
2019-01-24T14:54:15.830Z,4.938
2019-01-24T14:57:15.384Z,4.625
2019-01-24T15:00:15.783Z,5.025
2019-01-24T15:03:14.994Z,5.800
2019-01-24T15:06:15.483Z,11.225
2019-01-24T15:09:15.914Z,16.800
2019-01-24T15:12:15.329Z,11.150
2019-01-24T15:15:15.802Z,3.713
2019-01-24T15:18:15.481Z,3.638
2019-01-24T15:21:15.176Z,6.162
2019-01-24T15:24:15.673Z,7.887
2019-01-24T15:27:15.053Z,16.375
2019-01-24T15:30:15.518Z,6.500
2019-01-24T15:33:15.163Z,9.387
2019-01-24T15:36:15.574Z,11.037
2019-01-24T15:39:15.678Z,10.287
2019-01-24T15:42:16.376Z,6.625
2019-01-24T15:45:15.896Z,3.975
2019-01-24T15:48:15.437Z,4.250
2019-01-24T15:51:15.323Z,5.388
2019-01-24T15:54:15.769Z,6.038
2019-01-24T15:57:15.330Z,8.438
2019-01-24T16:00:15.158Z,4.863
2019-01-24T16:03:15.001Z,4.562
2019-01-24T16:06:15.437Z,5.600
2019-01-24T16:09:14.948Z,6.738
2019-01-24T16:12:15.407Z,5.963
2019-01-24T16:15:15.998Z,3.888
2019-01-24T16:18:15.070Z,12.113
2019-01-24T16:21:15.475Z,6.875
2019-01-24T16:24:15.895Z,5.525
2019-01-24T16:27:15.358Z,4.700
2019-01-24T16:30:14.984Z,9.412
2019-01-24T16:33:15.471Z,10.963
2019-01-24T16:36:14.953Z,5.537
2019-01-24T16:39:15.283Z,6.100
2019-01-24T16:42:15.902Z,4.375
2019-01-24T16:45:15.321Z,3.400
2019-01-24T16:48:15.350Z,7.012
2019-01-24T16:51:15.066Z,6.012
2019-01-24T16:54:15.722Z,4.438
2019-01-24T16:57:15.085Z,5.750
2019-01-24T17:00:15.525Z,4.325
2019-01-24T17:03:16.948Z,7.663
2019-01-24T17:06:15.677Z,4.825
2019-01-24T17:09:15.268Z,6.188
2019-01-24T17:12:15.806Z,5.425
2019-01-24T17:15:15.300Z,7.675
2019-01-24T17:18:15.127Z,4.450
2019-01-24T17:21:15.614Z,4.575
2019-01-24T17:24:15.041Z,3.537
2019-01-24T17:27:15.758Z,5.387
2019-01-24T17:30:15.209Z,10.025
2019-01-24T17:33:15.015Z,9.812
2019-01-24T17:36:15.369Z,3.962
2019-01-24T17:39:15.798Z,4.638
2019-01-24T17:42:15.007Z,7.750
2019-01-24T17:45:15.462Z,11.662
2019-01-24T17:48:15.363Z,4.875
2019-01-24T17:51:15.990Z,5.275
2019-01-24T17:54:15.292Z,9.125
2019-01-24T17:57:15.635Z,5.388
2019-01-24T18:00:14.925Z,5.562
2019-01-24T18:03:15.354Z,5.162
2019-01-24T18:06:15.867Z,5.588
2019-01-24T18:09:15.809Z,2.662
2019-01-24T18:12:15.033Z,13.162
2019-01-24T18:15:15.440Z,17.600
2019-01-24T18:18:14.922Z,8.262
2019-01-24T18:21:15.328Z,14.325
2019-01-24T18:24:15.694Z,8.700
2019-01-24T18:27:15.001Z,4.812
2019-01-24T18:30:15.557Z,7.637
2019-01-24T18:33:14.933Z,8.175
2019-01-24T18:36:15.304Z,9.600
2019-01-24T18:39:15.899Z,5.700
2019-01-24T18:42:15.182Z,7.075
2019-01-24T18:45:15.629Z,14.262
2019-01-24T18:48:15.127Z,10.650
2019-01-24T18:51:15.552Z,6.537
2019-01-24T18:54:14.951Z,7.775
2019-01-24T18:57:15.476Z,8.438
2019-01-24T19:00:15.151Z,5.688
2019-01-24T19:03:15.197Z,7.388
2019-01-24T19:06:15.679Z,7.975
2019-01-24T19:09:15.029Z,5.500
2019-01-24T19:12:15.273Z,7.963
2019-01-24T19:15:15.173Z,4.825
2019-01-24T19:18:15.944Z,8.650
2019-01-24T19:21:15.337Z,7.312
2019-01-24T19:24:15.889Z,6.275
2019-01-24T19:27:15.805Z,9.300
2019-01-24T19:30:15.296Z,10.125
2019-01-24T19:33:14.925Z,10.388
2019-01-24T19:36:15.230Z,7.088
2019-01-24T19:39:15.678Z,9.812
2019-01-24T19:42:15.175Z,13.512
2019-01-24T19:45:15.826Z,9.812
2019-01-24T19:48:15.520Z,3.688
2019-01-24T19:51:14.971Z,9.788
2019-01-24T19:54:15.091Z,7.900
2019-01-24T19:57:15.591Z,5.738
2019-01-24T20:00:15.069Z,5.237
2019-01-24T20:03:15.611Z,6.062
2019-01-24T20:06:15.325Z,9.700
2019-01-24T20:09:16.145Z,21.250
2019-01-24T20:12:15.648Z,15.900
2019-01-24T20:15:15.231Z,7.250
2019-01-24T20:18:15.201Z,8.050
2019-01-24T20:21:15.903Z,3.325
2019-01-24T20:24:15.512Z,7.637
2019-01-24T20:27:15.845Z,7.237
2019-01-24T20:30:15.527Z,6.138
2019-01-24T20:33:15.642Z,5.288
2019-01-24T20:36:15.212Z,10.025
2019-01-24T20:39:15.485Z,7.912
2019-01-24T20:42:15.122Z,2.325
2019-01-24T20:45:15.727Z,7.387
2019-01-24T20:48:14.876Z,6.612
2019-01-24T20:51:15.813Z,6.438
2019-01-24T20:54:15.305Z,6.387
2019-01-24T20:57:14.944Z,10.938
2019-01-24T21:00:15.435Z,7.963
2019-01-24T21:03:15.137Z,5.400
2019-01-24T21:06:15.804Z,8.262
2019-01-24T21:09:15.309Z,7.062
2019-01-24T21:12:14.906Z,4.562
2019-01-24T21:15:15.437Z,8.387
2019-01-24T21:18:15.088Z,8.250
2019-01-24T21:21:15.228Z,6.000
2019-01-24T21:24:15.073Z,7.175
2019-01-24T21:27:15.718Z,13.613
2019-01-24T21:30:15.334Z,7.712
2019-01-24T21:33:15.209Z,4.775
2019-01-24T21:36:15.788Z,9.062
2019-01-24T21:39:21.968Z,9.137
2019-01-24T21:42:14.896Z,5.975
2019-01-24T21:45:15.450Z,7.337
2019-01-24T21:48:15.256Z,4.688
2019-01-24T21:51:15.776Z,8.875
2019-01-24T21:54:15.827Z,6.763
2019-01-24T21:57:15.372Z,5.963
2019-01-24T22:00:15.985Z,6.762
2019-01-24T22:03:15.420Z,7.287
2019-01-24T22:06:15.778Z,6.838
2019-01-24T22:09:15.568Z,7.863
2019-01-24T22:12:15.739Z,7.550
2019-01-24T22:15:15.214Z,8.875
2019-01-24T22:18:15.605Z,10.538
2019-01-24T22:21:15.249Z,7.413
2019-01-24T22:24:15.881Z,7.038
2019-01-24T22:27:15.264Z,10.812
2019-01-24T22:30:15.720Z,6.662
2019-01-24T22:33:15.632Z,9.950
2019-01-24T22:36:15.305Z,10.562
2019-01-24T22:39:14.929Z,9.650
2019-01-24T22:42:15.837Z,8.787
2019-01-24T22:45:15.158Z,11.725
2019-01-24T22:48:14.968Z,7.612
2019-01-24T22:51:15.336Z,5.800
2019-01-24T22:54:15.777Z,6.325
2019-01-24T22:57:15.136Z,5.700
2019-01-24T23:00:15.377Z,9.175
2019-01-24T23:03:14.916Z,5.575
2019-01-24T23:06:15.436Z,8.975
2019-01-24T23:09:15.883Z,5.650
2019-01-24T23:12:15.094Z,6.862
2019-01-24T23:15:15.570Z,6.475
2019-01-24T23:18:15.794Z,10.663
2019-01-24T23:21:15.142Z,5.725
2019-01-24T23:24:15.727Z,8.637
2019-01-24T23:27:15.036Z,8.375
2019-01-24T23:30:15.424Z,5.737
2019-01-24T23:33:15.314Z,5.450
2019-01-24T23:36:15.616Z,4.188
2019-01-24T23:39:15.299Z,6.287
2019-01-24T23:42:15.112Z,6.300
2019-01-24T23:45:15.588Z,6.650
2019-01-24T23:48:14.901Z,7.075
2019-01-24T23:51:15.196Z,7.475
2019-01-24T23:54:15.708Z,10.438
2019-01-24T23:57:15.104Z,8.425
